Etusivu
METAR-TAF:

METAR-TAF

Lentoasemat :

Talara, Peru

Leveyspiiri: 04-34S, Pituuspiiri: 081-15W, korkeus merenpinnasta: 85 m

Tämänhetkinen sää

Tämä raportti tehtiin 26 minuuttia sitten, kello 20.00 UTC
Tuuli 13 kn etelästä/lounaasta
Lämpötila 31°C
Kosteus 52%
Ilmanpaine 1008 hPa
Näkyvyys 10 km tai enemmän
ei pilviä alle 1500 m:ssä eikä cumulonimbus-pilviä

METAR: SPYL 122000Z 20013KT CAVOK 31/20 Q1008 RMK BIRD HAZARD RWY 17/35 PP000

Aika: 15:26 (20:26 UTC)

Sääennuste

Tämä raportti tehtiin 3 tuntia ja 26 minuuttia sitten, kello 17.00 UTC
Ennuste voimassa 12. päivästä klo 18 UTC - 13. päivään klo 18 UTC
Tuuli 15 kn etelästä/lounaasta
Näkyvyys 10 km tai enemmän
ei pilviä alle 1500 m:ssä eikä cumulonimbus-pilviä

TAF: SPYL 121700Z 1218/1318 21015KT CAVOK TX33/1219Z TN21/1309Z

Säähavainnot ja -ennusteet yli 4000 lentoasemalta (METAR- ja TAF-raportit).

Käytössä olevat sääasemat on merkitty karttaan keltaisilla ja punaisilla pisteillä.

Aseta hiiri pisteen päälle nähdäksesi sääaseman nimen.

Klikkaa sitten nähdäksesi säähavainnot ja -ennusteet.

Kartan vaihtaminen: klikkaa mustalla rastilla varustettuja vihreitä pisteitä, niin voit zoomata sisään; viivalla varustettua vihreää pistettä, niin voit zoomata ulos tai vihreitä nuolia, niin pääset viereisille kartoille.


METAR-TAF: